Nearby METAR Reports

 

KHOB - Hobbs, New Mexico, USA
Distance from station: S 40mi, 65km
Updated: Tue, 07-Apr-2020 10:55pm MDT
Clear
Clear
 Wind from SW
Wind: SW 9 mph , 15 km/h
Temperature: 61°F , 16°C
Dew Point: 36°F , 2°C
Humidity: 39%
Barometer: 30.00 inHg , 1015.9 hPa
Clouds: Clear
Visibility: 10 miles , 16 km
2020/04/08 04:55 KHOB 080455Z AUTO 23008KT 10SM CLR 16/02 A3000 RMK AO2
KGNC - Seminole, Texas, USA
Distance from station: SE 55mi, 89km
Updated: Tue, 07-Apr-2020 10:55pm MDT
Clear
Clear
 Wind from WSW
Wind: WSW 9 mph , 15 km/h
Temperature: 64°F , 18°C
Dew Point: 39°F , 4°C
Humidity: 40%
Barometer: 30.02 inHg , 1016.6 hPa
Clouds: Clear
Visibility: 10 miles , 16 km
2020/04/08 04:55 KGNC 080455Z AUTO 25008KT 10SM CLR 18/04 A3002 RMK AO2 T01780036
 
KROW - Roswell, New Mexico, USA
Distance from station: W 67mi, 108km
Updated: Tue, 07-Apr-2020 10:51pm MDT
Clear
Clear
 Wind from WSW
Wind: WSW 10 mph , 17 km/h
Temperature: 66°F , 19°C
Dew Point: 28°F , -2°C
Humidity: 24%
Barometer: 29.98 inHg , 1015.2 hPa
Clouds: Clear
Visibility: 10 miles , 16 km
2020/04/08 04:51 KROW 080451Z AUTO 25009KT 10SM CLR 19/M02 A2998 RMK AO2 SLP095 T01891022 $
KATS - Artesia, New Mexico, USA
Distance from station: WSW 71mi, 114km
Updated: Tue, 07-Apr-2020 10:55pm MDT
Clear
Clear
 Wind from W
Wind: W 9 mph , 15 km/h
Temperature: 61°F , 16°C
Dew Point: 32°F , 0°C
Humidity: 34%
Barometer: 30.01 inHg , 1016.3 hPa
Clouds: Clear
Visibility: 10 miles , 16 km
2020/04/08 04:55 KATS 080455Z AUTO 26008KT 10SM CLR 16/00 A3001 RMK AO2
 
KCVS - Cannon AFB,Clovis, New Mexico, USA
Distance from station: 0 78mi, 125km
Updated: Tue, 07-Apr-2020 10:58pm MDT
Clear
Clear
 Wind from WNW
Wind: WNW 7 mph , 11 km/h
Temperature: 59°F , 15°C
Dew Point: 30°F , -1°C
Humidity: 34%
Barometer: 30.00 inHg , 1015.9 hPa
Clouds: Clear
Visibility: 10 miles , 16 km
2020/04/08 04:58 KCVS 080458Z AUTO 29006KT 10SM CLR 15/M01 A3000 RMK AO2 SLP111 T01511015 $
KE11 - Andrews, Texas, USA
Distance from station: SE 78mi, 126km
Updated: Tue, 07-Apr-2020 1:35pm MDT
NOT Current
Clear
Clear
 Wind from calm
Wind: Calm
Temperature: 81°F , 27°C
Dew Point: 28°F , -2°C
Humidity: 15%
Barometer: 30.01 inHg , 1016.3 hPa
Clouds: Clear
Visibility: 10 miles , 16 km
2020/04/07 19:35 KE11 071935Z AUTO 00000KT 10SM CLR 27/M02 A3001 RMK AO2 T02731017
 
KCNM - Carlsbad, New Mexico, USA
Distance from station: SW 82mi, 132km
Updated: Tue, 07-Apr-2020 10:53pm MDT
Clear
Clear
 Wind from WSW
Wind: WSW 12 mph , 19 km/h
Temperature: 64°F , 18°C
Dew Point: 34°F , 1°C
Humidity: 32%
Barometer: 29.99 inHg , 1015.6 hPa
Clouds: Clear
Visibility: 10 miles , 16 km
2020/04/08 04:53 KCNM 080453Z AUTO 24010KT 10SM CLR 18/01 A2999 RMK AO2 SLP108 T01830011
KCVN - Clovis Muni, New Mexico, USA
Distance from station: N 83mi, 133km
Updated: Tue, 07-Apr-2020 10:56pm MDT
Clear
Clear
 Wind from W
Wind: W 13 mph , 20 km/h
Temperature: 55°F , 13°C
Dew Point: 30°F , -1°C
Humidity: 38%
Barometer: 30.01 inHg , 1016.3 hPa
Clouds: Clear
Visibility: 10 miles , 16 km
2020/04/08 04:56 KCVN 080456Z AUTO 28011KT 10SM CLR 13/M01 A3001 RMK AO2 SLP130 T01281006
 
KLBB - Lubbock, Texas, USA
Distance from station: ENE 92mi, 149km
Updated: Tue, 07-Apr-2020 10:53pm MDT
Overcast
Overcast
 Wind from SW
Wind: SW 7 mph , 11 km/h
Temperature: 63°F , 17°C
Dew Point: 27°F , -3°C
Humidity: 25%
Barometer: 29.95 inHg , 1014.2 hPa
Clouds: Overcast
Visibility: 10 miles , 16 km
Cloud details: Partly cloudy 21000 ft
Overcast 25000 ft
2020/04/08 04:53 KLBB 080453Z 23006KT 10SM SCT210 OVC250 17/M03 A2995 RMK AO2 SLP098 OVC LYR THN T01721028
KINK - Wink, Texas, USA
Distance from station: S 101mi, 163km
Updated: Tue, 07-Apr-2020 10:53pm MDT
Clear
Clear
 Wind from W
Wind: W 10 mph , 17 km/h
Temperature: 70°F , 21°C
Dew Point: 39°F , 4°C
Humidity: 33%
Barometer: 29.97 inHg , 1014.9 hPa
Clouds: Clear
Visibility: 10 miles , 16 km
2020/04/08 04:53 KINK 080453Z AUTO 26009KT 10SM CLR 21/04 A2997 RMK AO2 SLP108 T02060039
 
KMAF - Midland, Texas, USA
Distance from station: SE 111mi, 179km
Updated: Tue, 07-Apr-2020 10:53pm MDT
Clear
Clear
 Wind from SW
Wind: SW 6 mph , 9 km/h
Temperature: 66°F , 19°C
Dew Point: 45°F , 7°C
Humidity: 46%
Barometer: 29.97 inHg , 1014.9 hPa
Clouds: Clear
Visibility: 10 miles , 16 km
2020/04/08 04:53 KMAF 080453Z 23005KT 10SM CLR 19/07 A2997 RMK AO2 SLP109 T01940067
KSRR - Sierra B/Ruidoso, New Mexico, USA
Distance from station: W 127mi, 204km
Updated: Tue, 07-Apr-2020 10:55pm MDT
Clear
Clear
 Wind from WSW
Wind: WSW 13 mph , 20 km/h
Temperature: 50°F , 10°C
Wind Chill: 45°F , 7°C
Dew Point: 23°F , -5°C
Humidity: 35%
Barometer: 30.18 inHg , 1022 hPa
Clouds: Clear
Visibility: 10 miles , 16 km
2020/04/08 04:55 KSRR 080455Z AUTO 25011KT 10SM CLR 10/M05 A3018 RMK AO2
 
KGDP - Guadalupe Pass, Texas, USA
Distance from station: SW 130mi, 209km
Updated: Tue, 07-Apr-2020 10:51pm MDT
Clear
Clear
 Wind from WSW
Wind: WSW 14 mph , 22 km/h
Temperature: 59°F , 15°C
Dew Point: 32°F , 0°C
Humidity: 36%
Barometer: 30.14 inHg , 1020.7 hPa
Clouds: Clear
Visibility: 10 miles , 16 km
2020/04/08 04:51 KGDP 080451Z AUTO 25012KT 10SM CLR 15/00 A3014 RMK AO2 SLP154 T01500000